FAMM

Details ICAO FAMM (MBD)
Name Mafikeng
Region South Africa
Timezone Africa/Johannesburg (UTC+2.0)
Plans Departing 3
Arriving 4
Stats Elevation 4,181 ft / 1,274 m (AMSL)
Location -25.798445° 25.548109°
Runways 1
Magnetic Variation 17.367° W
Sunrise 2017-12-18 03:23:20 UTC / 2017-12-18 05:23:20 Local
Sunset 2017-12-18 17:08:09 UTC / 2017-12-18 19:08:09 Local
Advertisement - Login to hide

Runways

ID Width Length Bearing (true) Bearing (mag) Surface Threshold Offset Overrun Length
04 148 ft / 45 m 15,170 ft / 4,624 m 22.89° 40.26° Asphalt 312 ft / 95 m 0 ft / 0 m
22 148 ft / 45 m 15,170 ft / 4,624 m 202.89° 220.26° Asphalt 215 ft / 66 m 0 ft / 0 m

Approach Navaids

Runway Type Ident Frequency Range Bearing (true) Bearing (mag) Slope Elevation
04 Localiser MMI 110.50 MHz 18 nm / 33 km 22.90° 40.27° - 4,180 ft / 1,274 m (AMSL)
04 Glidescope MMI 110.50 MHz 10 nm / 19 km 22.89° 40.26° 3.00° 4,180 ft / 1,274 m (AMSL)

Map

Weather


0- 5 10 15 20 25 30 35+ Temperature / ° C

Clouds and Precipitation
Forecast for 2017-12-18 18:00 UTC. Updated an hour ago

Ground ~20,000 ft ~40,000 ft Winds

METAR

FAMM 181800Z 19004KT CAVOK 27/10 Q1015 NOSIG

TAF

Not found

Frequencies

Tower 119.30 MHz TWR
Approach 119.30 MHz APP
Warning: Do not use this data for real-world aviation or navigation. No guarantee of current accuracy is given.